Time;durP1;ratioP1;P1;durP2;ratioP2;P2;SDS_P1;SDS_P2;PMS_P1;PMS_P2;Temp;Humidity;BMP_temperature;BMP_pressure;BME280_temperature;BME280_humidity;BME280_pressure;Samples;Min_cycle;Max_cycle;Signal;HPM_P1;HPM_P2
2022/06/29 00:00:20;;;;;;;3.35;0.68;;;14.90;99.90;;;;;;5009514;28;20129;-65
2022/06/29 00:02:46;;;;;;;2.22;0.52;;;14.90;99.90;;;;;;5009613;28;20036;-64
2022/06/29 00:05:14;;;;;;;7.22;1.27;;;14.90;99.90;;;;;;5009578;28;20025;-66
2022/06/29 00:07:41;;;;;;;7.07;0.70;;;14.90;99.90;;;;;;5011084;28;20382;-66
2022/06/29 00:10:08;;;;;;;7.30;1.20;;;14.90;99.90;;;;;;5011158;28;20026;-64
2022/06/29 00:12:34;;;;;;;5.75;1.05;;;14.90;99.90;;;;;;5009417;28;20080;-64
2022/06/29 00:15:03;;;;;;;3.67;1.40;;;15.00;99.90;;;;;;5016192;28;20034;-64
2022/06/29 00:17:30;;;;;;;2.97;0.60;;;14.90;99.90;;;;;;5008999;28;20029;-64
2022/06/29 00:20:00;;;;;;;4.72;0.93;;;14.90;99.90;;;;;;5010606;28;20564;-64
2022/06/29 00:22:26;;;;;;;5.80;1.02;;;14.90;99.90;;;;;;5008495;28;20486;-64
2022/06/29 00:24:52;;;;;;;9.27;1.05;;;14.90;99.90;;;;;;5009256;28;20535;-64
2022/06/29 00:27:18;;;;;;;4.30;0.80;;;15.00;99.90;;;;;;5008895;28;20117;-63
2022/06/29 00:29:43;;;;;;;5.93;0.90;;;14.90;99.90;;;;;;5010850;28;20075;-66
2022/06/29 00:32:09;;;;;;;4.85;0.65;;;14.90;99.90;;;;;;5006702;28;20501;-65
2022/06/29 00:34:35;;;;;;;2.63;0.65;;;14.80;99.90;;;;;;5010861;28;20026;-65
2022/06/29 00:37:01;;;;;;;2.78;0.68;;;14.80;99.90;;;;;;5010453;28;20029;-65
2022/06/29 00:39:27;;;;;;;3.97;0.80;;;14.90;99.90;;;;;;5008227;28;20038;-64
2022/06/29 00:41:53;;;;;;;4.15;0.75;;;14.80;99.90;;;;;;5009508;28;20033;-64
2022/06/29 00:44:20;;;;;;;9.32;1.27;;;14.80;99.90;;;;;;5001543;28;20113;-64
2022/06/29 00:46:47;;;;;;;8.93;1.38;;;14.70;99.90;;;;;;5007708;28;20497;-65
2022/06/29 00:49:17;;;;;;;2.83;0.70;;;14.70;99.90;;;;;;5007957;28;20037;-65
2022/06/29 00:51:48;;;;;;;3.15;0.70;;;14.70;99.90;;;;;;5010315;28;20029;-64
2022/06/29 00:54:19;;;;;;;6.95;0.82;;;14.70;99.90;;;;;;5007692;28;20030;-64
2022/06/29 00:56:46;;;;;;;4.03;0.75;;;14.70;99.90;;;;;;5009460;28;20025;-62
2022/06/29 00:59:19;;;;;;;2.80;0.68;;;14.70;99.90;;;;;;5007747;28;20500;-65
2022/06/29 01:01:45;;;;;;;4.03;0.90;;;14.70;99.90;;;;;;5010418;28;20033;-64
2022/06/29 01:04:10;;;;;;;6.43;0.82;;;14.80;99.90;;;;;;5007283;28;20034;-64
2022/06/29 01:06:37;;;;;;;6.15;1.10;;;14.80;99.90;;;;;;5010337;28;20037;-65
2022/06/29 01:09:04;;;;;;;6.40;0.80;;;14.80;99.90;;;;;;5009447;28;20037;-64
2022/06/29 01:11:31;;;;;;;4.57;0.90;;;14.80;99.90;;;;;;5007092;28;20034;-64
2022/06/29 01:13:57;;;;;;;4.50;0.60;;;14.80;99.90;;;;;;5009483;28;20029;-64
2022/06/29 01:16:23;;;;;;;3.20;0.70;;;14.80;99.90;;;;;;5008466;28;20509;-64
2022/06/29 01:18:49;;;;;;;9.68;1.05;;;14.80;99.90;;;;;;5010019;28;20033;-64
2022/06/29 01:21:18;;;;;;;4.25;0.73;;;14.80;99.90;;;;;;5007412;28;20100;-64
2022/06/29 01:23:44;;;;;;;7.03;1.02;;;14.80;99.90;;;;;;5009992;28;20026;-65
2022/06/29 01:26:11;;;;;;;4.30;1.25;;;14.80;99.90;;;;;;5008761;28;20033;-65
2022/06/29 01:28:46;;;;;;;4.00;0.63;;;14.80;99.90;;;;;;5009178;28;20030;-65
2022/06/29 01:31:17;;;;;;;7.55;0.90;;;14.80;99.90;;;;;;5007236;28;20057;-64
2022/06/29 01:33:44;;;;;;;4.38;0.70;;;14.80;99.90;;;;;;5009141;28;20385;-65
2022/06/29 01:36:09;;;;;;;3.35;0.63;;;14.80;99.90;;;;;;5008398;28;20386;-66
2022/06/29 01:38:36;;;;;;;4.88;0.70;;;14.80;99.90;;;;;;5009915;28;20026;-65
2022/06/29 01:41:04;;;;;;;4.68;0.80;;;14.70;99.90;;;;;;5008447;28;20037;-66
2022/06/29 01:43:31;;;;;;;4.95;0.70;;;14.70;99.90;;;;;;5006831;28;20037;-65
2022/06/29 01:45:57;;;;;;;3.90;0.85;;;14.70;99.90;;;;;;5009963;28;20022;-65
2022/06/29 01:48:22;;;;;;;5.75;1.15;;;14.80;99.90;;;;;;5007750;28;20390;-65
2022/06/29 01:50:49;;;;;;;4.20;1.38;;;14.70;99.90;;;;;;5009655;28;20065;-65
2022/06/29 01:53:15;;;;;;;3.70;0.60;;;14.70;99.90;;;;;;5005056;28;20482;-66
2022/06/29 01:55:40;;;;;;;3.88;1.10;;;14.70;99.90;;;;;;5008558;28;20026;-65
2022/06/29 01:58:06;;;;;;;5.57;1.33;;;14.80;99.90;;;;;;5007866;28;20033;-65
2022/06/29 02:00:32;;;;;;;4.00;0.90;;;14.80;99.90;;;;;;4999287;28;20517;-65
2022/06/29 02:02:57;;;;;;;7.53;0.93;;;14.80;99.90;;;;;;5007676;28;20026;-65
2022/06/29 02:05:23;;;;;;;6.07;1.20;;;14.80;99.90;;;;;;5007901;28;20030;-65
2022/06/29 02:07:48;;;;;;;7.47;1.25;;;14.80;99.90;;;;;;5006555;28;20386;-65
2022/06/29 02:10:14;;;;;;;5.53;0.73;;;14.80;99.90;;;;;;5005288;28;20041;-65
2022/06/29 02:12:40;;;;;;;7.35;0.90;;;14.80;99.90;;;;;;5009041;28;20022;-65
2022/06/29 02:15:07;;;;;;;5.03;1.05;;;14.70;99.90;;;;;;5008048;28;20137;-65
2022/06/29 02:17:33;;;;;;;7.30;0.85;;;14.60;99.90;;;;;;5007669;28;20057;-65
2022/06/29 02:19:59;;;;;;;7.10;0.80;;;14.70;99.90;;;;;;5008688;28;20520;-64
2022/06/29 02:22:24;;;;;;;3.15;0.82;;;14.70;99.90;;;;;;5009698;28;20061;-64
2022/06/29 02:24:50;;;;;;;9.20;1.95;;;14.70;99.90;;;;;;5011999;28;20042;-65
2022/06/29 02:27:15;;;;;;;3.92;0.88;;;14.60;99.90;;;;;;5009403;28;20076;-66
2022/06/29 02:29:41;;;;;;;4.00;1.00;;;14.70;99.90;;;;;;5012923;28;20080;-64
2022/06/29 02:34:51;;;;;;;6.60;1.10;;;14.60;99.90;;;;;;5005112;28;20033;-65
2022/06/29 02:37:17;;;;;;;4.75;0.90;;;14.60;99.90;;;;;;5011277;28;20029;-65
2022/06/29 02:39:44;;;;;;;3.05;0.70;;;14.70;99.90;;;;;;5009101;28;20052;-64
2022/06/29 02:42:10;;;;;;;6.75;1.92;;;14.70;99.90;;;;;;5010775;28;20026;-63
2022/06/29 02:44:37;;;;;;;3.88;0.80;;;14.70;99.90;;;;;;5012096;28;20025;-64
2022/06/29 02:47:07;;;;;;;2.15;0.70;;;14.60;99.90;;;;;;5005702;28;20478;-65
2022/06/29 02:49:34;;;;;;;6.72;1.30;;;14.70;99.90;;;;;;5007608;28;20038;-65
2022/06/29 02:51:59;;;;;;;2.95;0.70;;;14.70;99.90;;;;;;5011466;28;20030;-64
2022/06/29 02:54:25;;;;;;;5.15;0.68;;;14.80;99.90;;;;;;5009994;28;20032;-64
2022/06/29 02:56:51;;;;;;;9.00;1.13;;;14.80;99.90;;;;;;5012260;28;20120;-63
2022/06/29 02:59:17;;;;;;;4.65;0.90;;;14.80;99.90;;;;;;5008389;28;20053;-64
2022/06/29 03:01:42;;;;;;;4.57;0.65;;;14.80;99.90;;;;;;5007380;28;20397;-65
2022/06/29 03:04:08;;;;;;;4.43;0.70;;;14.80;99.90;;;;;;5012169;28;20108;-65
2022/06/29 03:06:34;;;;;;;4.78;0.70;;;14.90;99.90;;;;;;5012441;28;20074;-64
2022/06/29 03:09:00;;;;;;;3.60;0.80;;;14.90;99.90;;;;;;5011984;28;20022;-66
2022/06/29 03:11:25;;;;;;;3.03;0.55;;;14.90;99.90;;;;;;5008838;28;20053;-64
2022/06/29 03:13:51;;;;;;;3.47;0.90;;;14.90;99.90;;;;;;5010605;28;20055;-64
2022/06/29 03:16:17;;;;;;;6.63;0.73;;;15.00;99.90;;;;;;5010328;28;20026;-64
2022/06/29 03:18:43;;;;;;;4.00;1.40;;;15.00;99.90;;;;;;5012158;28;20033;-64
2022/06/29 03:21:09;;;;;;;8.02;2.03;;;15.00;99.90;;;;;;5008994;28;20520;-65
2022/06/29 03:23:34;;;;;;;3.92;0.80;;;15.00;99.90;;;;;;5008350;28;20040;-65
2022/06/29 03:26:00;;;;;;;6.85;1.00;;;15.00;99.90;;;;;;5008855;28;20022;-64
2022/06/29 03:28:26;;;;;;;3.70;1.55;;;15.10;99.90;;;;;;5005493;28;20038;-65
2022/06/29 03:30:51;;;;;;;2.85;0.80;;;15.10;99.90;;;;;;5010795;28;20037;-65
2022/06/29 03:33:17;;;;;;;4.47;0.70;;;15.10;99.90;;;;;;5009526;28;20116;-66
2022/06/29 03:35:43;;;;;;;6.15;1.10;;;15.20;99.90;;;;;;5011704;28;20040;-65
2022/06/29 03:38:09;;;;;;;7.10;1.10;;;15.10;99.90;;;;;;5011318;28;20022;-66
2022/06/29 03:40:34;;;;;;;5.78;0.93;;;15.20;99.90;;;;;;5007112;28;20390;-65
2022/06/29 03:43:00;;;;;;;4.95;1.10;;;15.20;99.90;;;;;;5007388;28;20018;-65
2022/06/29 03:45:25;;;;;;;6.45;1.10;;;15.20;99.90;;;;;;5009710;28;20053;-65
2022/06/29 03:47:51;;;;;;;3.95;1.38;;;15.30;99.90;;;;;;5010206;28;20030;-65
2022/06/29 03:50:17;;;;;;;6.13;1.13;;;15.30;99.90;;;;;;5007507;28;20038;-66
2022/06/29 03:52:43;;;;;;;10.02;1.45;;;15.40;99.90;;;;;;5004137;28;20026;-66
2022/06/29 03:55:09;;;;;;;4.50;1.00;;;15.40;99.90;;;;;;5010957;28;20096;-65
2022/06/29 03:57:35;;;;;;;6.45;1.17;;;15.30;99.90;;;;;;5010638;28;20470;-65
2022/06/29 04:00:02;;;;;;;10.48;1.65;;;15.40;99.90;;;;;;5010686;28;20026;-65
2022/06/29 04:02:28;;;;;;;6.05;1.17;;;15.40;99.90;;;;;;5006950;28;20030;-65
2022/06/29 04:04:53;;;;;;;11.80;1.30;;;15.50;99.90;;;;;;5005731;28;20037;-65
2022/06/29 04:07:19;;;;;;;4.72;0.90;;;15.50;99.90;;;;;;5006927;28;20386;-66
2022/06/29 04:09:45;;;;;;;7.53;1.10;;;15.50;99.90;;;;;;5011328;28;20033;-66
2022/06/29 04:12:11;;;;;;;7.13;1.08;;;15.50;99.90;;;;;;5030763;28;20025;-65
2022/06/29 04:14:37;;;;;;;5.03;0.90;;;15.60;99.90;;;;;;5011061;28;20084;-65
2022/06/29 04:17:03;;;;;;;12.32;1.20;;;15.60;99.90;;;;;;5010143;28;20105;-65
2022/06/29 04:19:29;;;;;;;5.25;0.90;;;15.70;99.90;;;;;;5008678;28;20124;-66
2022/06/29 04:21:55;;;;;;;6.03;1.20;;;15.70;99.90;;;;;;5010357;28;20034;-65
2022/06/29 04:24:22;;;;;;;2.45;1.23;;;15.70;99.90;;;;;;5006366;28;20037;-66
2022/06/29 04:26:57;;;;;;;7.25;1.17;;;15.80;99.90;;;;;;5010160;28;20034;-65
2022/06/29 04:29:22;;;;;;;4.13;1.23;;;15.80;99.90;;;;;;5010367;28;20109;-66
2022/06/29 04:31:48;;;;;;;7.05;2.10;;;15.90;99.90;;;;;;5004768;28;20517;-65
2022/06/29 04:34:13;;;;;;;10.98;1.58;;;15.90;99.90;;;;;;5007322;28;20018;-65
2022/06/29 04:36:39;;;;;;;7.30;1.17;;;16.00;99.90;;;;;;5005920;28;20037;-65
2022/06/29 04:39:05;;;;;;;7.97;1.42;;;16.00;99.90;;;;;;5005755;28;20452;-65
2022/06/29 04:41:30;;;;;;;7.10;1.30;;;16.00;99.90;;;;;;5007877;28;20038;-65
2022/06/29 04:43:56;;;;;;;6.93;1.20;;;16.10;99.90;;;;;;5010440;28;20096;-65
2022/06/29 04:46:24;;;;;;;3.63;0.98;;;16.10;99.90;;;;;;5007129;28;20076;-65
2022/06/29 04:49:00;;;;;;;3.20;0.68;;;16.10;99.90;;;;;;5014558;28;20030;-65
2022/06/29 04:51:28;;;;;;;5.50;0.98;;;16.10;99.90;;;;;;5009262;28;20029;-65
2022/06/29 04:53:55;;;;;;;6.63;0.80;;;16.20;99.90;;;;;;5010159;28;20030;-65
2022/06/29 04:56:22;;;;;;;5.65;1.63;;;16.10;99.90;;;;;;5007131;28;20033;-65
2022/06/29 04:58:49;;;;;;;8.35;1.08;;;16.10;99.90;;;;;;5006073;28;20482;-65
2022/06/29 05:01:14;;;;;;;4.82;0.85;;;16.10;99.90;;;;;;5003407;28;20046;-65
2022/06/29 05:03:41;;;;;;;7.30;0.80;;;16.00;99.90;;;;;;5009232;28;20037;-65
2022/06/29 05:06:07;;;;;;;5.28;1.20;;;16.00;99.90;;;;;;5009879;28;20064;-65
2022/06/29 05:08:32;;;;;;;3.50;0.90;;;16.00;99.90;;;;;;5008360;28;20046;-65
2022/06/29 05:10:58;;;;;;;1.90;0.70;;;16.00;99.90;;;;;;5008160;28;20030;-61
2022/06/29 05:13:24;;;;;;;6.80;1.20;;;15.90;99.90;;;;;;5008058;28;20029;-65
2022/06/29 05:15:49;;;;;;;5.00;1.35;;;16.00;99.90;;;;;;5009996;28;20030;-65
2022/06/29 05:18:15;;;;;;;7.10;1.45;;;16.00;99.90;;;;;;5006715;28;20032;-65
2022/06/29 05:20:42;;;;;;;4.15;0.90;;;16.00;99.90;;;;;;5009353;28;20042;-65
2022/06/29 05:23:09;;;;;;;7.88;1.38;;;15.90;99.90;;;;;;5008752;28;20112;-65
2022/06/29 05:25:35;;;;;;;6.72;1.65;;;16.00;99.90;;;;;;5009916;28;20045;-65
2022/06/29 05:28:00;;;;;;;5.40;1.02;;;16.00;99.90;;;;;;5009226;28;20389;-65
2022/06/29 05:30:26;;;;;;;7.05;1.05;;;16.00;99.90;;;;;;5007669;28;20038;-65
2022/06/29 05:32:52;;;;;;;7.18;1.35;;;16.00;99.90;;;;;;5008896;28;20038;-66
2022/06/29 05:35:17;;;;;;;7.95;1.85;;;16.00;99.90;;;;;;5007505;28;20024;-64
2022/06/29 05:37:43;;;;;;;10.00;1.40;;;16.00;99.90;;;;;;5008706;28;20040;-64
2022/06/29 05:40:09;;;;;;;6.63;1.20;;;16.10;99.90;;;;;;5007094;28;20045;-64
2022/06/29 05:42:35;;;;;;;6.43;1.25;;;16.10;99.90;;;;;;5000361;28;20095;-64
2022/06/29 05:45:01;;;;;;;7.28;1.52;;;16.10;99.90;;;;;;5009197;28;20492;-65
2022/06/29 05:47:27;;;;;;;7.38;1.10;;;16.20;99.90;;;;;;5006578;28;20427;-64
2022/06/29 05:49:52;;;;;;;11.55;1.30;;;16.20;99.90;;;;;;5003374;28;20052;-66
2022/06/29 05:52:19;;;;;;;5.13;1.15;;;16.10;99.90;;;;;;5006980;28;20033;-66
2022/06/29 05:54:45;;;;;;;10.27;1.60;;;16.10;99.90;;;;;;5012243;28;20040;-66
2022/06/29 05:57:11;;;;;;;8.93;1.27;;;16.00;99.90;;;;;;5008375;28;20030;-66
2022/06/29 05:59:37;;;;;;;9.68;1.40;;;16.00;99.90;;;;;;5010133;28;20030;-66
2022/06/29 06:02:03;;;;;;;7.15;1.08;;;15.90;99.90;;;;;;5013206;28;20040;-67
2022/06/29 06:04:28;;;;;;;3.83;0.93;;;16.00;99.90;;;;;;5011724;28;20051;-67
2022/06/29 06:06:54;;;;;;;4.05;1.00;;;16.10;99.90;;;;;;5012460;28;20026;-66
2022/06/29 06:09:25;;;;;;;7.05;1.40;;;16.20;99.90;;;;;;5004878;28;20088;-67
2022/06/29 06:11:51;;;;;;;5.97;2.10;;;16.30;99.90;;;;;;5009512;28;20122;-66
2022/06/29 06:14:16;;;;;;;8.10;1.13;;;16.30;99.90;;;;;;5007422;28;20033;-67
2022/06/29 06:16:42;;;;;;;4.70;1.58;;;16.30;99.90;;;;;;5005666;28;20116;-66
2022/06/29 06:19:08;;;;;;;6.78;1.48;;;16.30;99.90;;;;;;5011318;28;20068;-66
2022/06/29 06:21:35;;;;;;;7.70;1.30;;;16.20;99.90;;;;;;5011069;28;20057;-65
2022/06/29 06:24:00;;;;;;;9.07;1.42;;;15.90;99.90;;;;;;5012146;28;20469;-66
2022/06/29 06:26:26;;;;;;;3.60;0.98;;;15.80;99.90;;;;;;5010012;28;20029;-66
2022/06/29 06:28:52;;;;;;;7.00;2.15;;;15.70;99.90;;;;;;5013258;28;20478;-66
2022/06/29 06:31:18;;;;;;;4.63;1.52;;;15.60;99.90;;;;;;5010546;28;20053;-66
2022/06/29 06:33:43;;;;;;;3.55;0.90;;;15.70;99.90;;;;;;5011700;28;20026;-66
2022/06/29 06:36:09;;;;;;;5.75;1.30;;;15.70;99.90;;;;;;5008632;28;20022;-66
2022/06/29 06:38:35;;;;;;;4.28;1.02;;;15.60;99.90;;;;;;5010605;28;20034;-65
2022/06/29 06:43:44;;;;;;;4.65;1.10;;;15.60;99.90;;;;;;5008419;28;20029;-65
2022/06/29 06:46:10;;;;;;;6.25;1.50;;;15.60;99.90;;;;;;5002545;28;20030;-66
2022/06/29 06:48:36;;;;;;;7.05;1.73;;;15.70;99.90;;;;;;5011587;28;20022;-66
2022/06/29 06:51:02;;;;;;;4.05;0.95;;;15.70;99.90;;;;;;5013544;28;20474;-66
2022/06/29 06:53:28;;;;;;;6.05;1.33;;;15.60;99.90;;;;;;5015215;28;20041;-66
2022/06/29 06:55:53;;;;;;;7.70;1.30;;;15.60;99.90;;;;;;5005531;28;20029;-67
2022/06/29 06:58:19;;;;;;;5.20;2.10;;;15.70;99.90;;;;;;5004732;28;20022;-66
2022/06/29 07:00:45;;;;;;;1.77;0.88;;;15.80;99.90;;;;;;5008152;28;20042;-66
2022/06/29 07:03:10;;;;;;;3.65;1.23;;;15.90;99.90;;;;;;5005955;28;20422;-66
2022/06/29 07:05:37;;;;;;;3.20;1.10;;;15.80;99.90;;;;;;5009829;28;20033;-66
2022/06/29 07:08:03;;;;;;;4.75;1.30;;;15.90;99.90;;;;;;5009134;28;20030;-66
2022/06/29 07:10:29;;;;;;;3.13;0.77;;;16.00;99.90;;;;;;5006216;28;20046;-66
2022/06/29 07:12:54;;;;;;;4.63;1.00;;;16.10;99.90;;;;;;5007871;28;20108;-66
2022/06/29 07:15:20;;;;;;;5.60;1.40;;;16.20;99.90;;;;;;5008762;28;20580;-64
2022/06/29 07:17:46;;;;;;;7.72;1.58;;;16.30;99.90;;;;;;5003922;28;20437;-66
2022/06/29 07:20:11;;;;;;;3.63;0.82;;;16.30;99.90;;;;;;5001975;28;20040;-65
2022/06/29 07:22:37;;;;;;;7.88;1.58;;;16.20;99.90;;;;;;5007081;28;20026;-66
2022/06/29 07:25:03;;;;;;;3.75;0.90;;;16.40;99.90;;;;;;5011244;28;20025;-67
2022/06/29 07:27:29;;;;;;;5.00;0.88;;;16.30;99.90;;;;;;5002868;28;20038;-67
2022/06/29 07:29:54;;;;;;;4.22;1.25;;;16.30;99.90;;;;;;5009534;28;20022;-67
2022/06/29 07:32:20;;;;;;;6.72;1.40;;;16.40;99.90;;;;;;5009283;28;20394;-67
2022/06/29 07:34:47;;;;;;;4.47;1.10;;;16.40;99.90;;;;;;5008306;28;20034;-66
2022/06/29 07:37:12;;;;;;;4.72;1.20;;;16.40;99.90;;;;;;5009947;28;20478;-68
2022/06/29 07:39:38;;;;;;;6.57;1.58;;;16.40;99.90;;;;;;5004435;28;20057;-67
2022/06/29 07:42:04;;;;;;;9.90;1.13;;;16.50;99.90;;;;;;5009427;28;20038;-69
2022/06/29 07:44:30;;;;;;;6.57;1.17;;;16.50;99.90;;;;;;5009089;28;20038;-68
2022/06/29 07:46:56;;;;;;;7.95;2.00;;;16.60;99.90;;;;;;5010623;28;20029;-68
2022/06/29 07:49:23;;;;;;;4.88;1.60;;;16.60;99.90;;;;;;5007488;28;20497;-65
2022/06/29 07:51:49;;;;;;;9.63;2.10;;;16.40;99.90;;;;;;5004066;28;20454;-66
2022/06/29 07:54:15;;;;;;;7.72;1.58;;;16.30;99.90;;;;;;5007048;28;20029;-66
2022/06/29 07:56:42;;;;;;;4.82;1.80;;;16.30;99.90;;;;;;5004820;28;20116;-67
2022/06/29 07:59:07;;;;;;;4.35;1.30;;;16.20;99.90;;;;;;5009394;28;20034;-67
2022/06/29 08:01:33;;;;;;;4.70;1.73;;;16.20;99.90;;;;;;5002670;28;20034;-65
2022/06/29 08:03:58;;;;;;;10.48;2.22;;;16.10;99.90;;;;;;5008385;28;20482;-64
2022/06/29 08:06:25;;;;;;;4.53;1.50;;;16.10;99.90;;;;;;5009082;28;20205;-66
2022/06/29 08:08:51;;;;;;;6.30;1.40;;;16.00;99.90;;;;;;5009593;28;20022;-67
2022/06/29 08:11:17;;;;;;;5.88;1.55;;;16.00;99.90;;;;;;5007904;28;20033;-68
2022/06/29 08:13:43;;;;;;;8.07;2.33;;;15.90;99.90;;;;;;5008829;28;20034;-67
2022/06/29 08:16:09;;;;;;;9.23;1.45;;;16.00;99.90;;;;;;5009432;28;20540;-66
2022/06/29 08:18:35;;;;;;;6.13;1.80;;;16.00;99.90;;;;;;5008506;28;20057;-67
2022/06/29 08:21:03;;;;;;;5.80;1.95;;;16.10;99.90;;;;;;5010121;28;20038;-65
2022/06/29 08:23:29;;;;;;;7.57;2.30;;;16.20;99.90;;;;;;5004784;28;20049;-66
2022/06/29 08:25:54;;;;;;;11.18;2.67;;;16.20;99.90;;;;;;5002878;28;20057;-66
2022/06/29 08:28:20;;;;;;;4.63;1.58;;;16.20;99.90;;;;;;5005285;28;20037;-67
2022/06/29 08:30:49;;;;;;;7.60;1.90;;;16.30;99.90;;;;;;4998880;28;20057;-66
2022/06/29 08:33:15;;;;;;;6.47;2.00;;;16.20;99.90;;;;;;5005623;28;20030;-64
2022/06/29 08:35:41;;;;;;;6.88;2.00;;;16.30;99.90;;;;;;5004882;28;20084;-64
2022/06/29 08:38:08;;;;;;;7.88;1.73;;;16.20;99.90;;;;;;5008395;28;20038;-67
2022/06/29 08:40:45;;;;;;;8.07;2.97;;;16.30;99.90;;;;;;5007997;28;20037;-67
2022/06/29 08:43:12;;;;;;;4.45;1.40;;;16.40;99.90;;;;;;5007149;28;20025;-64
2022/06/29 08:45:47;;;;;;;7.70;2.00;;;16.50;99.90;;;;;;5008734;28;20026;-67
2022/06/29 08:48:13;;;;;;;4.90;1.65;;;16.60;99.90;;;;;;5001319;28;20117;-67
2022/06/29 08:50:40;;;;;;;7.82;2.10;;;16.50;99.90;;;;;;5008467;28;20114;-67
2022/06/29 08:53:08;;;;;;;8.05;1.92;;;16.60;99.90;;;;;;5005433;28;20054;-68
2022/06/29 08:55:41;;;;;;;7.93;1.30;;;16.60;99.90;;;;;;5006517;28;20026;-66
2022/06/29 08:58:07;;;;;;;6.78;2.15;;;16.60;99.90;;;;;;5007400;28;20022;-66
2022/06/29 09:00:36;;;;;;;5.60;1.80;;;16.60;99.90;;;;;;5004690;28;20516;-67
2022/06/29 09:03:04;;;;;;;9.13;2.00;;;16.80;99.90;;;;;;5006149;28;20037;-66
2022/06/29 09:05:30;;;;;;;7.82;1.48;;;16.80;99.90;;;;;;5004720;28;20030;-67
2022/06/29 09:07:56;;;;;;;6.38;1.40;;;16.70;99.90;;;;;;5007619;28;20083;-67
2022/06/29 09:10:23;;;;;;;4.20;1.50;;;16.70;99.90;;;;;;5002803;28;20037;-66
2022/06/29 09:12:52;;;;;;;3.78;0.90;;;16.80;99.90;;;;;;5007640;28;20037;-66
2022/06/29 09:15:36;;;;;;;8.90;1.77;;;16.80;99.90;;;;;;5006665;28;20033;-67
2022/06/29 09:18:03;;;;;;;4.47;1.80;;;16.80;99.90;;;;;;5005125;28;20026;-66
2022/06/29 09:20:40;;;;;;;4.18;1.20;;;16.90;99.90;;;;;;5003614;28;20367;-67
2022/06/29 09:23:09;;;;;;;7.40;1.55;;;17.10;99.90;;;;;;5007488;28;20083;-67
2022/06/29 09:25:39;;;;;;;3.17;1.23;;;17.30;99.90;;;;;;5000179;28;20593;-67
2022/06/29 09:28:18;;;;;;;3.92;1.30;;;17.30;99.90;;;;;;5000083;28;20030;-67
2022/06/29 09:30:44;;;;;;;4.10;1.25;;;17.40;99.90;;;;;;5008676;28;20112;-67
2022/06/29 09:33:10;;;;;;;2.38;0.77;;;17.30;99.90;;;;;;4999590;28;20478;-67
2022/06/29 09:35:38;;;;;;;5.10;1.20;;;17.10;99.90;;;;;;5008010;28;20041;-66
2022/06/29 09:38:24;;;;;;;3.63;1.25;;;17.00;99.90;;;;;;5003352;28;20389;-65
2022/06/29 09:41:10;;;;;;;4.18;1.17;;;16.80;99.90;;;;;;5001774;28;20486;-65
2022/06/29 09:43:38;;;;;;;5.43;1.00;;;16.80;99.90;;;;;;5002638;28;20030;-65
2022/06/29 09:46:05;;;;;;;5.20;1.70;;;16.80;99.90;;;;;;5007987;28;20065;-66
2022/06/29 09:48:33;;;;;;;4.10;1.17;;;16.90;99.90;;;;;;5006969;28;20408;-65
2022/06/29 09:50:59;;;;;;;4.05;1.10;;;16.70;99.90;;;;;;5005760;28;20033;-65
2022/06/29 09:53:37;;;;;;;6.30;0.93;;;16.60;99.90;;;;;;5005698;28;20022;-64
2022/06/29 09:56:06;;;;;;;4.85;0.77;;;16.50;99.90;;;;;;5008003;28;20597;-64
2022/06/29 09:58:46;;;;;;;3.72;0.88;;;16.50;99.90;;;;;;5003137;28;20058;-65
2022/06/29 10:04:02;;;;;;;5.45;1.17;;;16.50;99.90;;;;;;5004389;28;20065;-66
2022/06/29 10:06:28;;;;;;;5.32;0.88;;;16.60;99.90;;;;;;5005721;28;20136;-64
2022/06/29 10:08:56;;;;;;;5.30;1.10;;;16.70;99.90;;;;;;5008472;28;20029;-68
2022/06/29 10:14:36;;;;;;;5.57;1.20;;;17.00;99.90;;;;;;5005920;28;20453;-65
2022/06/29 10:17:23;;;;;;;9.40;1.73;;;17.10;99.90;;;;;;5000853;28;20043;-65
2022/06/29 10:20:23;;;;;;;5.60;1.42;;;17.20;99.90;;;;;;4996452;28;20104;-65
2022/06/29 10:22:49;;;;;;;6.50;1.10;;;17.20;99.90;;;;;;4992392;28;20068;-65
2022/06/29 10:25:15;;;;;;;9.20;1.60;;;17.10;99.90;;;;;;5003220;28;20479;-64
2022/06/29 10:28:11;;;;;;;5.20;1.35;;;17.10;99.90;;;;;;5001975;28;20030;-64
2022/06/29 10:30:38;;;;;;;11.60;2.00;;;16.90;99.90;;;;;;5003045;28;20048;-65
2022/06/29 10:33:37;;;;;;;5.97;1.23;;;17.00;99.90;;;;;;4999368;28;20036;-64
2022/06/29 10:36:08;;;;;;;6.70;1.40;;;16.80;99.90;;;;;;5005262;28;20060;-64
2022/06/29 10:38:59;;;;;;;5.55;1.23;;;16.50;99.90;;;;;;5005935;28;20026;-63
2022/06/29 10:45:04;;;;;;;5.78;1.20;;;16.50;99.90;;;;;;4960823;28;20031;-64
2022/06/29 10:47:30;;;;;;;8.90;1.50;;;16.60;99.90;;;;;;4889564;29;20096;-65
2022/06/29 10:50:18;;;;;;;6.22;1.02;;;16.60;99.90;;;;;;4893319;29;20532;-66
2022/06/29 10:52:46;;;;;;;7.50;1.50;;;16.70;99.90;;;;;;4889747;29;20032;-65
2022/06/29 10:55:13;;;;;;;7.88;1.40;;;16.80;99.90;;;;;;4891737;29;20074;-64
2022/06/29 10:57:44;;;;;;;8.68;1.40;;;16.80;99.90;;;;;;4892615;29;20055;-65
2022/06/29 11:00:16;;;;;;;5.35;1.38;;;17.00;99.90;;;;;;4892010;29;20048;-65
2022/06/29 11:02:44;;;;;;;6.22;1.48;;;17.30;99.90;;;;;;4893916;29;20041;-65
2022/06/29 11:05:10;;;;;;;8.63;1.25;;;17.90;99.90;;;;;;4893245;29;20036;-64
2022/06/29 11:13:11;;;;;;;5.78;1.50;;;19.20;99.90;;;;;;4890344;29;20159;-65
2022/06/29 11:15:41;;;;;;;7.25;1.40;;;19.30;99.90;;;;;;4902984;29;20052;-64
2022/06/29 11:18:15;;;;;;;3.08;0.82;;;20.00;99.90;;;;;;4929204;29;20378;-65
2022/06/29 11:20:51;;;;;;;4.35;0.98;;;20.40;99.90;;;;;;4944194;28;20049;-66
2022/06/29 11:23:27;;;;;;;4.60;0.82;;;20.70;99.90;;;;;;5007591;28;20057;-64
2022/06/29 11:25:54;;;;;;;4.72;1.00;;;21.00;99.90;;;;;;5010122;28;20486;-65
2022/06/29 11:28:27;;;;;;;5.55;0.85;;;21.40;99.90;;;;;;5007935;28;20022;-65
2022/06/29 11:31:03;;;;;;;3.58;0.80;;;21.10;99.90;;;;;;5010880;28;20046;-65
2022/06/29 11:33:33;;;;;;;6.80;1.05;;;20.70;99.90;;;;;;5006323;28;20080;-66
2022/06/29 11:36:06;;;;;;;5.13;0.80;;;20.40;99.90;;;;;;5009025;28;20041;-65
2022/06/29 11:38:37;;;;;;;3.30;1.10;;;20.50;99.90;;;;;;5003965;28;20037;-66
2022/06/29 11:41:18;;;;;;;3.80;0.82;;;20.10;99.90;;;;;;5010671;28;20034;-64
2022/06/29 11:43:44;;;;;;;3.80;0.68;;;20.50;99.90;;;;;;5009792;28;20032;-64
2022/06/29 11:46:21;;;;;;;3.33;0.90;;;20.50;99.90;;;;;;5005201;28;20112;-65
2022/06/29 11:51:56;;;;;;;4.97;1.08;;;20.20;99.90;;;;;;5007165;28;20060;-65
2022/06/29 11:55:01;;;;;;;3.88;1.00;;;20.40;99.90;;;;;;5005927;28;20121;-65
2022/06/29 11:57:27;;;;;;;4.75;0.80;;;20.80;99.90;;;;;;4961195;28;20031;-65
2022/06/29 12:00:05;;;;;;;4.55;0.63;;;20.80;99.90;;;;;;4968065;28;20093;-65
2022/06/29 12:02:34;;;;;;;3.88;0.80;;;20.70;99.90;;;;;;4963402;28;20576;-64
2022/06/29 12:05:02;;;;;;;4.13;0.88;;;20.70;99.90;;;;;;4967570;28;20023;-65
2022/06/29 12:07:29;;;;;;;5.75;1.00;;;21.50;99.90;;;;;;4963692;28;20450;-64
2022/06/29 12:09:57;;;;;;;4.85;1.30;;;22.00;99.90;;;;;;4966733;28;20042;-65
2022/06/29 12:12:22;;;;;;;4.93;1.05;;;22.30;99.90;;;;;;4965309;28;20118;-64
2022/06/29 12:14:48;;;;;;;8.15;1.10;;;22.60;99.90;;;;;;4966499;28;20118;-65
2022/06/29 12:17:14;;;;;;;3.40;1.10;;;22.80;99.90;;;;;;4957513;28;20019;-64
2022/06/29 12:19:42;;;;;;;5.93;1.08;;;22.60;99.90;;;;;;4964548;28;20058;-62
2022/06/29 12:22:08;;;;;;;8.68;1.77;;;22.40;99.90;;;;;;4962590;28;20050;-63
2022/06/29 12:24:34;;;;;;;5.53;1.23;;;22.80;99.90;;;;;;4961939;28;20110;-64
2022/06/29 12:27:00;;;;;;;4.93;1.20;;;23.40;99.90;;;;;;4960387;28;20042;-59
2022/06/29 12:29:25;;;;;;;5.78;1.00;;;23.20;99.90;;;;;;4993627;28;20026;-63
2022/06/29 12:31:51;;;;;;;7.03;1.10;;;23.20;99.90;;;;;;5011933;28;20092;-63
2022/06/29 12:34:17;;;;;;;5.07;1.20;;;23.20;99.90;;;;;;5006735;28;20065;-63
2022/06/29 12:36:43;;;;;;;5.85;1.40;;;22.60;99.90;;;;;;5009479;28;20050;-63
2022/06/29 12:39:09;;;;;;;8.23;2.10;;;22.50;99.90;;;;;;5009284;28;20056;-63
2022/06/29 12:41:35;;;;;;;5.78;1.60;;;22.20;99.90;;;;;;5007854;28;20044;-63
2022/06/29 12:44:04;;;;;;;5.63;1.30;;;22.20;99.90;;;;;;5006752;28;20040;-62
2022/06/29 12:46:32;;;;;;;5.28;1.48;;;22.40;99.90;;;;;;5006369;28;20466;-63
2022/06/29 12:48:57;;;;;;;8.05;1.63;;;23.00;99.90;;;;;;5008135;28;20025;-63
2022/06/29 12:51:24;;;;;;;9.88;1.88;;;23.30;99.90;;;;;;5004934;28;20025;-62
2022/06/29 12:53:50;;;;;;;10.70;1.90;;;22.70;99.90;;;;;;4998264;28;20048;-63
2022/06/29 12:56:17;;;;;;;5.57;1.63;;;22.10;99.90;;;;;;5005242;28;20517;-62
2022/06/29 12:58:42;;;;;;;6.65;1.13;;;21.60;99.90;;;;;;5006908;28;20044;-62
2022/06/29 13:01:08;;;;;;;5.97;1.10;;;21.50;99.90;;;;;;5007253;28;20034;-65
2022/06/29 13:03:35;;;;;;;5.88;1.20;;;21.30;99.90;;;;;;5007283;28;20558;-64
2022/06/29 13:06:01;;;;;;;6.63;1.45;;;20.90;99.90;;;;;;5006457;28;20022;-64
2022/06/29 13:08:27;;;;;;;5.72;1.15;;;20.90;99.90;;;;;;5005604;28;20022;-64
2022/06/29 13:10:52;;;;;;;8.13;1.60;;;21.00;99.90;;;;;;5009341;28;20034;-65